sensor_id;sensor_type;location;lat;lon;timestamp;P1;durP1;ratioP1;P2;durP2;ratioP2
56667;SDS011;42542;48.360;10.958;2022-08-03T00:00:21;5.80;;;2.70;;
56667;SDS011;42542;48.360;10.958;2022-08-03T00:03:24;8.35;;;3.20;;
56667;SDS011;42542;48.360;10.958;2022-08-03T00:06:26;6.57;;;2.97;;
56667;SDS011;42542;48.360;10.958;2022-08-03T00:09:28;7.50;;;3.10;;
56667;SDS011;42542;48.360;10.958;2022-08-03T00:12:36;8.48;;;3.20;;
56667;SDS011;42542;48.360;10.958;2022-08-03T00:15:38;6.50;;;3.20;;
56667;SDS011;42542;48.360;10.958;2022-08-03T00:18:41;6.53;;;3.25;;
56667;SDS011;42542;48.360;10.958;2022-08-03T00:21:43;6.28;;;3.00;;
56667;SDS011;42542;48.360;10.958;2022-08-03T00:24:44;7.18;;;3.30;;
56667;SDS011;42542;48.360;10.958;2022-08-03T00:27:46;7.55;;;3.00;;
56667;SDS011;42542;48.360;10.958;2022-08-03T00:30:48;7.10;;;3.00;;
56667;SDS011;42542;48.360;10.958;2022-08-03T00:33:50;6.43;;;3.00;;
56667;SDS011;42542;48.360;10.958;2022-08-03T00:36:59;5.93;;;2.90;;
56667;SDS011;42542;48.360;10.958;2022-08-03T00:40:01;8.90;;;3.10;;
56667;SDS011;42542;48.360;10.958;2022-08-03T00:43:06;6.90;;;2.95;;
56667;SDS011;42542;48.360;10.958;2022-08-03T00:46:08;5.67;;;2.67;;
56667;SDS011;42542;48.360;10.958;2022-08-03T00:49:10;7.25;;;2.90;;
56667;SDS011;42542;48.360;10.958;2022-08-03T00:52:12;7.78;;;2.90;;
56667;SDS011;42542;48.360;10.958;2022-08-03T00:55:16;9.30;;;3.28;;
56667;SDS011;42542;48.360;10.958;2022-08-03T00:58:18;5.95;;;2.88;;
56667;SDS011;42542;48.360;10.958;2022-08-03T01:01:20;6.73;;;2.97;;
56667;SDS011;42542;48.360;10.958;2022-08-03T01:04:21;7.65;;;3.17;;
56667;SDS011;42542;48.360;10.958;2022-08-03T01:10:53;10.75;;;3.22;;
56667;SDS011;42542;48.360;10.958;2022-08-03T01:14:20;14.07;;;3.50;;
56667;SDS011;42542;48.360;10.958;2022-08-03T01:17:31;7.17;;;3.10;;
56667;SDS011;42542;48.360;10.958;2022-08-03T01:20:37;8.13;;;2.85;;
56667;SDS011;42542;48.360;10.958;2022-08-03T01:27:04;8.63;;;3.20;;
56667;SDS011;42542;48.360;10.958;2022-08-03T01:30:10;6.70;;;3.00;;
56667;SDS011;42542;48.360;10.958;2022-08-03T01:33:23;7.03;;;3.00;;
56667;SDS011;42542;48.360;10.958;2022-08-03T01:36:29;6.90;;;2.83;;
56667;SDS011;42542;48.360;10.958;2022-08-03T01:39:38;6.60;;;3.10;;
56667;SDS011;42542;48.360;10.958;2022-08-03T01:42:41;7.65;;;3.30;;
56667;SDS011;42542;48.360;10.958;2022-08-03T01:45:45;8.80;;;3.20;;
56667;SDS011;42542;48.360;10.958;2022-08-03T01:48:47;6.93;;;3.50;;
56667;SDS011;42542;48.360;10.958;2022-08-03T01:51:49;8.48;;;3.75;;
56667;SDS011;42542;48.360;10.958;2022-08-03T01:55:06;7.05;;;3.67;;
56667;SDS011;42542;48.360;10.958;2022-08-03T01:58:10;9.20;;;3.70;;
56667;SDS011;42542;48.360;10.958;2022-08-03T02:01:17;8.68;;;3.70;;
56667;SDS011;42542;48.360;10.958;2022-08-03T02:04:21;7.33;;;3.47;;
56667;SDS011;42542;48.360;10.958;2022-08-03T02:07:24;7.32;;;3.60;;
56667;SDS011;42542;48.360;10.958;2022-08-03T02:10:29;9.20;;;3.60;;
56667;SDS011;42542;48.360;10.958;2022-08-03T02:13:36;8.32;;;3.45;;
56667;SDS011;42542;48.360;10.958;2022-08-03T02:16:38;7.15;;;3.35;;
56667;SDS011;42542;48.360;10.958;2022-08-03T02:19:41;7.23;;;3.40;;
56667;SDS011;42542;48.360;10.958;2022-08-03T02:22:44;8.82;;;3.50;;
56667;SDS011;42542;48.360;10.958;2022-08-03T02:25:47;7.65;;;3.10;;
56667;SDS011;42542;48.360;10.958;2022-08-03T02:28:55;6.95;;;3.30;;
56667;SDS011;42542;48.360;10.958;2022-08-03T02:32:00;8.05;;;3.70;;
56667;SDS011;42542;48.360;10.958;2022-08-03T02:35:09;6.73;;;3.30;;
56667;SDS011;42542;48.360;10.958;2022-08-03T02:38:13;7.78;;;3.20;;
56667;SDS011;42542;48.360;10.958;2022-08-03T02:41:17;9.35;;;3.30;;
56667;SDS011;42542;48.360;10.958;2022-08-03T02:44:31;7.50;;;3.22;;
56667;SDS011;42542;48.360;10.958;2022-08-03T02:47:35;7.50;;;3.58;;
56667;SDS011;42542;48.360;10.958;2022-08-03T02:50:55;7.97;;;3.17;;
56667;SDS011;42542;48.360;10.958;2022-08-03T02:54:00;11.52;;;3.70;;
56667;SDS011;42542;48.360;10.958;2022-08-03T02:57:05;7.82;;;3.50;;
56667;SDS011;42542;48.360;10.958;2022-08-03T03:00:09;9.05;;;3.83;;
56667;SDS011;42542;48.360;10.958;2022-08-03T03:03:12;7.80;;;3.50;;
56667;SDS011;42542;48.360;10.958;2022-08-03T03:06:16;8.67;;;3.80;;
56667;SDS011;42542;48.360;10.958;2022-08-03T03:09:19;7.65;;;3.60;;
56667;SDS011;42542;48.360;10.958;2022-08-03T03:12:21;7.90;;;3.63;;
56667;SDS011;42542;48.360;10.958;2022-08-03T03:15:26;8.77;;;3.58;;
56667;SDS011;42542;48.360;10.958;2022-08-03T03:18:30;7.22;;;3.60;;
56667;SDS011;42542;48.360;10.958;2022-08-03T03:21:33;8.57;;;3.57;;
56667;SDS011;42542;48.360;10.958;2022-08-03T03:24:36;7.55;;;3.70;;
56667;SDS011;42542;48.360;10.958;2022-08-03T03:27:39;7.13;;;3.25;;
56667;SDS011;42542;48.360;10.958;2022-08-03T03:30:49;8.55;;;3.33;;
56667;SDS011;42542;48.360;10.958;2022-08-03T03:33:54;8.32;;;3.35;;
56667;SDS011;42542;48.360;10.958;2022-08-03T03:36:58;8.30;;;3.33;;
56667;SDS011;42542;48.360;10.958;2022-08-03T03:39:59;6.68;;;3.28;;
56667;SDS011;42542;48.360;10.958;2022-08-03T03:43:01;8.25;;;3.60;;
56667;SDS011;42542;48.360;10.958;2022-08-03T03:46:03;9.32;;;3.55;;
56667;SDS011;42542;48.360;10.958;2022-08-03T03:49:05;9.32;;;3.38;;
56667;SDS011;42542;48.360;10.958;2022-08-03T03:52:10;7.67;;;3.57;;
56667;SDS011;42542;48.360;10.958;2022-08-03T03:55:15;7.25;;;3.45;;
56667;SDS011;42542;48.360;10.958;2022-08-03T03:58:19;7.53;;;3.65;;
56667;SDS011;42542;48.360;10.958;2022-08-03T04:01:25;9.02;;;3.65;;
56667;SDS011;42542;48.360;10.958;2022-08-03T04:04:26;7.85;;;3.80;;
56667;SDS011;42542;48.360;10.958;2022-08-03T04:08:00;7.53;;;3.77;;
56667;SDS011;42542;48.360;10.958;2022-08-03T04:11:30;7.15;;;3.60;;
56667;SDS011;42542;48.360;10.958;2022-08-03T04:14:36;8.98;;;3.80;;
56667;SDS011;42542;48.360;10.958;2022-08-03T04:17:40;8.07;;;3.80;;
56667;SDS011;42542;48.360;10.958;2022-08-03T04:20:44;8.55;;;3.85;;
56667;SDS011;42542;48.360;10.958;2022-08-03T04:23:50;7.67;;;3.70;;
56667;SDS011;42542;48.360;10.958;2022-08-03T04:26:55;7.63;;;3.50;;
56667;SDS011;42542;48.360;10.958;2022-08-03T04:29:59;8.05;;;3.80;;
56667;SDS011;42542;48.360;10.958;2022-08-03T04:33:05;7.40;;;3.80;;
56667;SDS011;42542;48.360;10.958;2022-08-03T04:36:08;8.63;;;3.90;;
56667;SDS011;42542;48.360;10.958;2022-08-03T04:39:15;9.07;;;3.80;;
56667;SDS011;42542;48.360;10.958;2022-08-03T04:42:22;7.93;;;3.88;;
56667;SDS011;42542;48.360;10.958;2022-08-03T04:45:25;7.47;;;3.60;;
56667;SDS011;42542;48.360;10.958;2022-08-03T04:48:28;9.10;;;3.55;;
56667;SDS011;42542;48.360;10.958;2022-08-03T04:51:30;7.68;;;3.70;;
56667;SDS011;42542;48.360;10.958;2022-08-03T04:54:38;8.67;;;3.60;;
56667;SDS011;42542;48.360;10.958;2022-08-03T04:57:40;7.00;;;3.70;;
56667;SDS011;42542;48.360;10.958;2022-08-03T05:00:42;7.85;;;3.72;;
56667;SDS011;42542;48.360;10.958;2022-08-03T05:03:45;8.90;;;3.97;;
56667;SDS011;42542;48.360;10.958;2022-08-03T05:06:47;8.10;;;3.83;;
56667;SDS011;42542;48.360;10.958;2022-08-03T05:09:56;9.80;;;4.30;;
56667;SDS011;42542;48.360;10.958;2022-08-03T05:13:03;8.27;;;3.97;;
56667;SDS011;42542;48.360;10.958;2022-08-03T05:16:05;8.85;;;4.40;;
56667;SDS011;42542;48.360;10.958;2022-08-03T05:19:06;9.10;;;4.18;;
56667;SDS011;42542;48.360;10.958;2022-08-03T05:22:08;10.85;;;4.30;;
56667;SDS011;42542;48.360;10.958;2022-08-03T05:25:10;8.23;;;3.80;;
56667;SDS011;42542;48.360;10.958;2022-08-03T05:28:20;8.02;;;3.90;;
56667;SDS011;42542;48.360;10.958;2022-08-03T05:31:23;8.65;;;3.90;;
56667;SDS011;42542;48.360;10.958;2022-08-03T05:34:24;8.18;;;3.58;;
56667;SDS011;42542;48.360;10.958;2022-08-03T05:37:26;9.93;;;3.60;;
56667;SDS011;42542;48.360;10.958;2022-08-03T05:40:28;11.60;;;3.57;;
56667;SDS011;42542;48.360;10.958;2022-08-03T05:43:29;7.90;;;3.67;;
56667;SDS011;42542;48.360;10.958;2022-08-03T05:46:32;8.82;;;3.50;;
56667;SDS011;42542;48.360;10.958;2022-08-03T05:49:33;11.10;;;3.20;;
56667;SDS011;42542;48.360;10.958;2022-08-03T05:52:35;6.63;;;3.15;;
56667;SDS011;42542;48.360;10.958;2022-08-03T05:55:37;7.47;;;3.33;;
56667;SDS011;42542;48.360;10.958;2022-08-03T05:58:38;9.25;;;3.30;;
56667;SDS011;42542;48.360;10.958;2022-08-03T06:01:40;7.18;;;3.03;;
56667;SDS011;42542;48.360;10.958;2022-08-03T06:04:42;7.15;;;3.00;;
56667;SDS011;42542;48.360;10.958;2022-08-03T06:07:43;13.05;;;3.40;;
56667;SDS011;42542;48.360;10.958;2022-08-03T06:10:45;6.60;;;3.00;;
56667;SDS011;42542;48.360;10.958;2022-08-03T06:13:46;7.63;;;3.33;;
56667;SDS011;42542;48.360;10.958;2022-08-03T06:16:48;8.48;;;3.10;;
56667;SDS011;42542;48.360;10.958;2022-08-03T06:19:52;9.07;;;2.97;;
56667;SDS011;42542;48.360;10.958;2022-08-03T06:22:54;8.77;;;3.08;;
56667;SDS011;42542;48.360;10.958;2022-08-03T06:26:01;6.40;;;3.00;;
56667;SDS011;42542;48.360;10.958;2022-08-03T06:29:03;6.60;;;3.05;;
56667;SDS011;42542;48.360;10.958;2022-08-03T06:32:08;6.85;;;3.10;;
56667;SDS011;42542;48.360;10.958;2022-08-03T06:35:10;9.23;;;3.13;;
56667;SDS011;42542;48.360;10.958;2022-08-03T06:38:11;7.25;;;3.10;;
56667;SDS011;42542;48.360;10.958;2022-08-03T06:41:13;7.30;;;3.27;;
56667;SDS011;42542;48.360;10.958;2022-08-03T06:44:15;6.85;;;3.30;;
56667;SDS011;42542;48.360;10.958;2022-08-03T06:47:16;8.25;;;3.28;;
56667;SDS011;42542;48.360;10.958;2022-08-03T06:50:18;6.88;;;3.10;;
56667;SDS011;42542;48.360;10.958;2022-08-03T06:53:25;7.50;;;2.85;;
56667;SDS011;42542;48.360;10.958;2022-08-03T06:56:27;6.63;;;2.87;;
56667;SDS011;42542;48.360;10.958;2022-08-03T06:59:29;7.47;;;2.90;;
56667;SDS011;42542;48.360;10.958;2022-08-03T07:02:50;6.55;;;2.80;;
56667;SDS011;42542;48.360;10.958;2022-08-03T07:05:58;6.75;;;2.60;;
56667;SDS011;42542;48.360;10.958;2022-08-03T07:08:59;5.97;;;2.60;;
56667;SDS011;42542;48.360;10.958;2022-08-03T07:12:02;5.93;;;2.60;;
56667;SDS011;42542;48.360;10.958;2022-08-03T07:15:04;9.10;;;2.80;;
56667;SDS011;42542;48.360;10.958;2022-08-03T07:18:06;6.32;;;2.70;;
56667;SDS011;42542;48.360;10.958;2022-08-03T07:21:08;6.80;;;2.67;;
56667;SDS011;42542;48.360;10.958;2022-08-03T07:24:11;9.50;;;3.20;;
56667;SDS011;42542;48.360;10.958;2022-08-03T07:27:12;5.97;;;2.80;;
56667;SDS011;42542;48.360;10.958;2022-08-03T07:30:16;6.20;;;2.53;;
56667;SDS011;42542;48.360;10.958;2022-08-03T07:33:18;6.72;;;2.50;;
56667;SDS011;42542;48.360;10.958;2022-08-03T07:36:19;6.35;;;2.40;;
56667;SDS011;42542;48.360;10.958;2022-08-03T07:39:21;6.55;;;2.70;;
56667;SDS011;42542;48.360;10.958;2022-08-03T07:42:23;5.50;;;2.50;;
56667;SDS011;42542;48.360;10.958;2022-08-03T07:45:24;6.82;;;2.80;;
56667;SDS011;42542;48.360;10.958;2022-08-03T07:48:27;5.25;;;2.50;;
56667;SDS011;42542;48.360;10.958;2022-08-03T07:51:28;6.70;;;3.03;;
56667;SDS011;42542;48.360;10.958;2022-08-03T07:54:30;5.15;;;2.05;;
56667;SDS011;42542;48.360;10.958;2022-08-03T07:57:32;4.80;;;2.13;;
56667;SDS011;42542;48.360;10.958;2022-08-03T08:00:34;5.82;;;2.10;;
56667;SDS011;42542;48.360;10.958;2022-08-03T08:03:36;5.30;;;2.00;;
56667;SDS011;42542;48.360;10.958;2022-08-03T08:06:53;5.75;;;2.05;;
56667;SDS011;42542;48.360;10.958;2022-08-03T08:09:55;5.20;;;2.20;;
56667;SDS011;42542;48.360;10.958;2022-08-03T08:12:56;6.00;;;2.27;;
56667;SDS011;42542;48.360;10.958;2022-08-03T08:15:59;5.28;;;1.80;;
56667;SDS011;42542;48.360;10.958;2022-08-03T08:19:01;4.93;;;1.90;;
56667;SDS011;42542;48.360;10.958;2022-08-03T08:22:03;5.00;;;2.10;;
56667;SDS011;42542;48.360;10.958;2022-08-03T08:25:05;4.72;;;1.98;;
56667;SDS011;42542;48.360;10.958;2022-08-03T08:28:07;5.10;;;1.60;;
56667;SDS011;42542;48.360;10.958;2022-08-03T08:31:29;4.80;;;1.75;;
56667;SDS011;42542;48.360;10.958;2022-08-03T08:34:30;4.38;;;1.58;;
56667;SDS011;42542;48.360;10.958;2022-08-03T08:37:32;4.00;;;1.40;;
56667;SDS011;42542;48.360;10.958;2022-08-03T08:40:34;4.75;;;1.50;;
56667;SDS011;42542;48.360;10.958;2022-08-03T08:43:35;4.30;;;1.60;;
56667;SDS011;42542;48.360;10.958;2022-08-03T08:46:37;5.63;;;1.60;;
56667;SDS011;42542;48.360;10.958;2022-08-03T08:49:40;4.55;;;1.55;;
56667;SDS011;42542;48.360;10.958;2022-08-03T08:52:59;4.32;;;1.55;;
56667;SDS011;42542;48.360;10.958;2022-08-03T08:56:03;5.22;;;1.52;;
56667;SDS011;42542;48.360;10.958;2022-08-03T08:59:07;4.20;;;1.50;;
56667;SDS011;42542;48.360;10.958;2022-08-03T09:02:09;4.28;;;1.50;;
56667;SDS011;42542;48.360;10.958;2022-08-03T09:05:15;5.20;;;1.50;;
56667;SDS011;42542;48.360;10.958;2022-08-03T09:08:19;4.00;;;1.45;;
56667;SDS011;42542;48.360;10.958;2022-08-03T09:11:21;4.18;;;1.50;;
56667;SDS011;42542;48.360;10.958;2022-08-03T09:14:44;4.33;;;1.30;;
56667;SDS011;42542;48.360;10.958;2022-08-03T09:18:05;5.35;;;1.33;;
56667;SDS011;42542;48.360;10.958;2022-08-03T09:24:31;4.03;;;1.40;;
56667;SDS011;42542;48.360;10.958;2022-08-03T09:27:45;4.43;;;1.30;;
56667;SDS011;42542;48.360;10.958;2022-08-03T09:30:57;3.87;;;1.27;;
56667;SDS011;42542;48.360;10.958;2022-08-03T09:34:03;5.45;;;1.30;;
56667;SDS011;42542;48.360;10.958;2022-08-03T09:37:13;5.15;;;1.52;;
56667;SDS011;42542;48.360;10.958;2022-08-03T09:40:32;5.55;;;1.48;;
56667;SDS011;42542;48.360;10.958;2022-08-03T09:43:44;4.13;;;1.30;;
56667;SDS011;42542;48.360;10.958;2022-08-03T09:46:47;4.17;;;1.40;;
56667;SDS011;42542;48.360;10.958;2022-08-03T09:49:55;4.60;;;1.38;;
56667;SDS011;42542;48.360;10.958;2022-08-03T09:53:02;4.35;;;1.50;;
56667;SDS011;42542;48.360;10.958;2022-08-03T09:56:04;4.45;;;1.40;;
56667;SDS011;42542;48.360;10.958;2022-08-03T09:59:29;4.15;;;1.50;;
56667;SDS011;42542;48.360;10.958;2022-08-03T10:02:33;4.27;;;1.30;;
56667;SDS011;42542;48.360;10.958;2022-08-03T10:05:35;4.30;;;1.50;;
56667;SDS011;42542;48.360;10.958;2022-08-03T10:08:37;4.18;;;1.50;;
56667;SDS011;42542;48.360;10.958;2022-08-03T10:11:39;4.18;;;1.50;;
56667;SDS011;42542;48.360;10.958;2022-08-03T10:14:42;4.78;;;1.40;;
56667;SDS011;42542;48.360;10.958;2022-08-03T10:17:45;3.87;;;1.27;;
56667;SDS011;42542;48.360;10.958;2022-08-03T10:23:53;3.83;;;1.30;;
56667;SDS011;42542;48.360;10.958;2022-08-03T10:26:59;5.20;;;1.40;;
56667;SDS011;42542;48.360;10.958;2022-08-03T10:30:05;4.75;;;1.38;;
56667;SDS011;42542;48.360;10.958;2022-08-03T10:33:10;4.10;;;1.40;;
56667;SDS011;42542;48.360;10.958;2022-08-03T10:36:37;3.60;;;1.20;;
56667;SDS011;42542;48.360;10.958;2022-08-03T10:39:41;3.80;;;1.30;;
56667;SDS011;42542;48.360;10.958;2022-08-03T10:42:55;4.07;;;1.45;;
56667;SDS011;42542;48.360;10.958;2022-08-03T10:46:02;3.40;;;1.20;;
56667;SDS011;42542;48.360;10.958;2022-08-03T10:49:09;3.83;;;1.30;;
56667;SDS011;42542;48.360;10.958;2022-08-03T10:52:13;4.18;;;1.38;;
56667;SDS011;42542;48.360;10.958;2022-08-03T10:55:39;4.30;;;1.42;;
56667;SDS011;42542;48.360;10.958;2022-08-03T10:59:01;3.75;;;1.30;;
56667;SDS011;42542;48.360;10.958;2022-08-03T11:02:04;4.68;;;1.48;;
56667;SDS011;42542;48.360;10.958;2022-08-03T11:05:24;3.90;;;1.40;;
56667;SDS011;42542;48.360;10.958;2022-08-03T11:08:31;4.70;;;1.40;;
56667;SDS011;42542;48.360;10.958;2022-08-03T11:11:35;6.10;;;1.48;;
56667;SDS011;42542;48.360;10.958;2022-08-03T11:14:44;4.00;;;1.30;;
56667;SDS011;42542;48.360;10.958;2022-08-03T11:18:03;5.07;;;1.27;;
56667;SDS011;42542;48.360;10.958;2022-08-03T11:21:11;5.07;;;1.50;;
56667;SDS011;42542;48.360;10.958;2022-08-03T11:27:36;4.65;;;1.60;;
56667;SDS011;42542;48.360;10.958;2022-08-03T11:30:39;4.47;;;1.70;;
56667;SDS011;42542;48.360;10.958;2022-08-03T11:33:41;6.45;;;1.80;;
56667;SDS011;42542;48.360;10.958;2022-08-03T11:40:33;4.65;;;1.50;;
56667;SDS011;42542;48.360;10.958;2022-08-03T11:43:44;5.63;;;1.60;;
56667;SDS011;42542;48.360;10.958;2022-08-03T11:46:47;4.43;;;1.45;;
56667;SDS011;42542;48.360;10.958;2022-08-03T11:49:49;3.90;;;1.50;;
56667;SDS011;42542;48.360;10.958;2022-08-03T11:52:51;5.57;;;1.60;;
56667;SDS011;42542;48.360;10.958;2022-08-03T11:55:57;4.00;;;1.40;;
56667;SDS011;42542;48.360;10.958;2022-08-03T11:58:59;5.85;;;1.60;;
56667;SDS011;42542;48.360;10.958;2022-08-03T12:02:21;4.65;;;1.42;;
56667;SDS011;42542;48.360;10.958;2022-08-03T12:08:55;5.70;;;1.50;;
56667;SDS011;42542;48.360;10.958;2022-08-03T12:11:56;6.15;;;1.45;;
56667;SDS011;42542;48.360;10.958;2022-08-03T12:15:01;6.43;;;1.80;;
56667;SDS011;42542;48.360;10.958;2022-08-03T12:18:11;4.82;;;1.70;;
56667;SDS011;42542;48.360;10.958;2022-08-03T12:21:15;6.07;;;1.70;;
56667;SDS011;42542;48.360;10.958;2022-08-03T12:24:18;4.40;;;1.50;;
56667;SDS011;42542;48.360;10.958;2022-08-03T12:27:24;4.20;;;1.40;;
56667;SDS011;42542;48.360;10.958;2022-08-03T12:30:27;4.40;;;1.40;;
56667;SDS011;42542;48.360;10.958;2022-08-03T12:33:29;4.53;;;1.40;;
56667;SDS011;42542;48.360;10.958;2022-08-03T12:36:32;4.05;;;1.50;;
56667;SDS011;42542;48.360;10.958;2022-08-03T12:39:49;4.37;;;1.30;;
56667;SDS011;42542;48.360;10.958;2022-08-03T12:43:12;4.47;;;1.50;;
56667;SDS011;42542;48.360;10.958;2022-08-03T12:46:15;5.00;;;1.50;;
56667;SDS011;42542;48.360;10.958;2022-08-03T12:49:18;4.13;;;1.45;;
56667;SDS011;42542;48.360;10.958;2022-08-03T12:52:21;5.78;;;1.50;;
56667;SDS011;42542;48.360;10.958;2022-08-03T12:55:24;4.23;;;1.40;;
56667;SDS011;42542;48.360;10.958;2022-08-03T12:58:53;4.25;;;1.40;;
56667;SDS011;42542;48.360;10.958;2022-08-03T13:01:55;4.57;;;1.30;;
56667;SDS011;42542;48.360;10.958;2022-08-03T13:04:59;3.83;;;1.38;;
56667;SDS011;42542;48.360;10.958;2022-08-03T13:08:23;4.32;;;1.40;;
56667;SDS011;42542;48.360;10.958;2022-08-03T13:11:26;3.90;;;1.30;;
56667;SDS011;42542;48.360;10.958;2022-08-03T13:14:49;5.32;;;1.40;;
56667;SDS011;42542;48.360;10.958;2022-08-03T13:18:00;5.03;;;1.50;;
56667;SDS011;42542;48.360;10.958;2022-08-03T13:21:02;4.10;;;1.40;;
56667;SDS011;42542;48.360;10.958;2022-08-03T13:24:04;5.28;;;1.48;;
56667;SDS011;42542;48.360;10.958;2022-08-03T13:27:06;4.97;;;1.50;;
56667;SDS011;42542;48.360;10.958;2022-08-03T13:30:28;5.40;;;1.40;;
56667;SDS011;42542;48.360;10.958;2022-08-03T13:33:30;6.45;;;1.50;;
56667;SDS011;42542;48.360;10.958;2022-08-03T13:36:32;4.78;;;1.50;;
56667;SDS011;42542;48.360;10.958;2022-08-03T13:39:54;4.22;;;1.58;;
56667;SDS011;42542;48.360;10.958;2022-08-03T13:43:00;3.90;;;1.40;;
56667;SDS011;42542;48.360;10.958;2022-08-03T13:46:02;4.22;;;1.50;;
56667;SDS011;42542;48.360;10.958;2022-08-03T13:49:04;4.28;;;1.50;;
56667;SDS011;42542;48.360;10.958;2022-08-03T13:52:06;4.18;;;1.48;;
56667;SDS011;42542;48.360;10.958;2022-08-03T13:55:08;6.72;;;1.50;;
56667;SDS011;42542;48.360;10.958;2022-08-03T13:58:10;4.47;;;1.60;;
56667;SDS011;42542;48.360;10.958;2022-08-03T14:01:12;5.25;;;1.63;;
56667;SDS011;42542;48.360;10.958;2022-08-03T14:04:14;6.20;;;1.63;;
56667;SDS011;42542;48.360;10.958;2022-08-03T14:07:22;5.85;;;1.60;;
56667;SDS011;42542;48.360;10.958;2022-08-03T14:10:24;5.85;;;1.58;;
56667;SDS011;42542;48.360;10.958;2022-08-03T14:13:26;5.23;;;1.50;;
56667;SDS011;42542;48.360;10.958;2022-08-03T14:16:27;4.50;;;1.60;;
56667;SDS011;42542;48.360;10.958;2022-08-03T14:19:29;4.38;;;1.40;;
56667;SDS011;42542;48.360;10.958;2022-08-03T14:22:32;3.72;;;1.40;;
56667;SDS011;42542;48.360;10.958;2022-08-03T14:25:33;4.40;;;1.48;;
56667;SDS011;42542;48.360;10.958;2022-08-03T14:28:50;4.77;;;1.40;;
56667;SDS011;42542;48.360;10.958;2022-08-03T14:31:52;4.53;;;1.30;;
56667;SDS011;42542;48.360;10.958;2022-08-03T14:35:12;4.40;;;1.50;;
56667;SDS011;42542;48.360;10.958;2022-08-03T14:38:14;4.25;;;1.50;;
56667;SDS011;42542;48.360;10.958;2022-08-03T14:41:16;3.67;;;1.40;;
56667;SDS011;42542;48.360;10.958;2022-08-03T14:44:20;3.90;;;1.50;;
56667;SDS011;42542;48.360;10.958;2022-08-03T14:47:22;5.68;;;1.40;;
56667;SDS011;42542;48.360;10.958;2022-08-03T14:50:23;4.45;;;1.45;;
56667;SDS011;42542;48.360;10.958;2022-08-03T14:53:42;6.22;;;1.50;;
56667;SDS011;42542;48.360;10.958;2022-08-03T14:56:43;5.18;;;1.67;;
56667;SDS011;42542;48.360;10.958;2022-08-03T14:59:45;3.77;;;1.40;;
56667;SDS011;42542;48.360;10.958;2022-08-03T15:02:57;4.43;;;1.30;;
56667;SDS011;42542;48.360;10.958;2022-08-03T15:05:59;7.05;;;1.40;;
56667;SDS011;42542;48.360;10.958;2022-08-03T15:09:00;5.85;;;1.42;;
56667;SDS011;42542;48.360;10.958;2022-08-03T15:12:22;4.45;;;1.40;;
56667;SDS011;42542;48.360;10.958;2022-08-03T15:15:24;3.60;;;1.30;;
56667;SDS011;42542;48.360;10.958;2022-08-03T15:18:25;4.47;;;1.40;;
56667;SDS011;42542;48.360;10.958;2022-08-03T15:21:27;4.30;;;1.50;;
56667;SDS011;42542;48.360;10.958;2022-08-03T15:24:48;4.30;;;1.50;;
56667;SDS011;42542;48.360;10.958;2022-08-03T15:27:49;4.68;;;1.40;;
56667;SDS011;42542;48.360;10.958;2022-08-03T15:31:04;4.70;;;1.33;;
56667;SDS011;42542;48.360;10.958;2022-08-03T15:34:07;4.65;;;1.42;;
56667;SDS011;42542;48.360;10.958;2022-08-03T15:37:08;12.05;;;2.00;;
56667;SDS011;42542;48.360;10.958;2022-08-03T15:40:23;8.18;;;2.00;;
56667;SDS011;42542;48.360;10.958;2022-08-03T15:43:24;4.40;;;1.50;;
56667;SDS011;42542;48.360;10.958;2022-08-03T15:46:26;3.57;;;1.40;;
56667;SDS011;42542;48.360;10.958;2022-08-03T15:49:30;4.13;;;1.48;;
56667;SDS011;42542;48.360;10.958;2022-08-03T15:52:34;4.38;;;1.40;;
56667;SDS011;42542;48.360;10.958;2022-08-03T15:55:36;4.03;;;1.40;;
56667;SDS011;42542;48.360;10.958;2022-08-03T15:58:37;5.50;;;1.80;;
56667;SDS011;42542;48.360;10.958;2022-08-03T16:01:59;4.77;;;1.60;;
56667;SDS011;42542;48.360;10.958;2022-08-03T16:05:01;4.75;;;1.70;;
56667;SDS011;42542;48.360;10.958;2022-08-03T16:08:03;4.70;;;1.90;;
56667;SDS011;42542;48.360;10.958;2022-08-03T16:11:10;4.15;;;1.60;;
56667;SDS011;42542;48.360;10.958;2022-08-03T16:14:12;3.92;;;1.55;;
56667;SDS011;42542;48.360;10.958;2022-08-03T16:17:33;4.50;;;1.60;;
56667;SDS011;42542;48.360;10.958;2022-08-03T16:20:35;5.43;;;2.42;;
56667;SDS011;42542;48.360;10.958;2022-08-03T16:23:37;6.72;;;2.00;;
56667;SDS011;42542;48.360;10.958;2022-08-03T16:26:43;6.15;;;1.80;;
56667;SDS011;42542;48.360;10.958;2022-08-03T16:29:45;5.45;;;1.60;;
56667;SDS011;42542;48.360;10.958;2022-08-03T16:32:47;4.43;;;1.63;;
56667;SDS011;42542;48.360;10.958;2022-08-03T16:35:48;4.70;;;1.60;;
56667;SDS011;42542;48.360;10.958;2022-08-03T16:38:50;6.28;;;1.90;;
56667;SDS011;42542;48.360;10.958;2022-08-03T16:41:52;4.13;;;1.77;;
56667;SDS011;42542;48.360;10.958;2022-08-03T16:45:02;5.38;;;1.80;;
56667;SDS011;42542;48.360;10.958;2022-08-03T16:48:05;5.23;;;1.73;;
56667;SDS011;42542;48.360;10.958;2022-08-03T16:51:07;5.45;;;1.60;;
56667;SDS011;42542;48.360;10.958;2022-08-03T16:54:09;4.40;;;1.58;;
56667;SDS011;42542;48.360;10.958;2022-08-03T16:57:14;4.40;;;1.67;;
56667;SDS011;42542;48.360;10.958;2022-08-03T17:00:16;5.63;;;1.60;;
56667;SDS011;42542;48.360;10.958;2022-08-03T17:03:34;5.93;;;1.80;;
56667;SDS011;42542;48.360;10.958;2022-08-03T17:06:59;5.32;;;2.22;;
56667;SDS011;42542;48.360;10.958;2022-08-03T17:10:01;4.35;;;1.80;;
56667;SDS011;42542;48.360;10.958;2022-08-03T17:13:07;5.55;;;1.92;;
56667;SDS011;42542;48.360;10.958;2022-08-03T17:16:08;7.03;;;2.00;;
56667;SDS011;42542;48.360;10.958;2022-08-03T17:19:15;5.70;;;1.60;;
56667;SDS011;42542;48.360;10.958;2022-08-03T17:22:19;5.18;;;1.73;;
56667;SDS011;42542;48.360;10.958;2022-08-03T17:25:27;5.40;;;1.80;;
56667;SDS011;42542;48.360;10.958;2022-08-03T17:28:50;6.07;;;1.80;;
56667;SDS011;42542;48.360;10.958;2022-08-03T17:31:58;5.32;;;1.83;;
56667;SDS011;42542;48.360;10.958;2022-08-03T17:35:08;5.13;;;1.90;;
56667;SDS011;42542;48.360;10.958;2022-08-03T17:38:10;5.72;;;1.70;;
56667;SDS011;42542;48.360;10.958;2022-08-03T17:41:18;4.50;;;1.42;;
56667;SDS011;42542;48.360;10.958;2022-08-03T17:44:22;4.10;;;1.48;;
56667;SDS011;42542;48.360;10.958;2022-08-03T17:47:41;4.47;;;1.58;;
56667;SDS011;42542;48.360;10.958;2022-08-03T17:50:50;5.10;;;1.50;;
56667;SDS011;42542;48.360;10.958;2022-08-03T17:54:02;4.22;;;1.60;;
56667;SDS011;42542;48.360;10.958;2022-08-03T17:57:07;5.38;;;1.60;;
56667;SDS011;42542;48.360;10.958;2022-08-03T18:00:27;6.18;;;1.73;;
56667;SDS011;42542;48.360;10.958;2022-08-03T18:03:53;6.53;;;1.88;;
56667;SDS011;42542;48.360;10.958;2022-08-03T18:06:59;5.83;;;1.60;;
56667;SDS011;42542;48.360;10.958;2022-08-03T18:10:17;5.45;;;1.80;;
56667;SDS011;42542;48.360;10.958;2022-08-03T18:13:23;6.15;;;1.80;;
56667;SDS011;42542;48.360;10.958;2022-08-03T18:16:32;5.82;;;1.90;;
56667;SDS011;42542;48.360;10.958;2022-08-03T18:19:38;5.10;;;1.80;;
56667;SDS011;42542;48.360;10.958;2022-08-03T18:23:01;6.83;;;2.10;;
56667;SDS011;42542;48.360;10.958;2022-08-03T18:26:08;6.15;;;1.92;;
56667;SDS011;42542;48.360;10.958;2022-08-03T18:29:12;7.10;;;1.80;;
56667;SDS011;42542;48.360;10.958;2022-08-03T18:32:16;4.70;;;1.90;;
56667;SDS011;42542;48.360;10.958;2022-08-03T18:35:19;5.00;;;2.00;;
56667;SDS011;42542;48.360;10.958;2022-08-03T18:38:26;5.87;;;1.90;;
56667;SDS011;42542;48.360;10.958;2022-08-03T18:41:31;4.57;;;1.92;;
56667;SDS011;42542;48.360;10.958;2022-08-03T18:44:35;5.95;;;1.90;;